Time;durP1;ratioP1;P1;durP2;ratioP2;P2;SDS_P1;SDS_P2;PMS_P1;PMS_P2;Temp;Humidity;BMP_temperature;BMP_pressure;BME280_temperature;BME280_humidity;BME280_pressure;Samples;Min_cycle;Max_cycle;Signal;HPM_P1;HPM_P2
2021/05/18 00:01:49;;;;;;;5.55;1.92;;;;;;;;;;4947747;28;20034;-86
2021/05/18 00:04:17;;;;;;;1.98;1.10;;;;;;;;;;4955162;28;20094;-86
2021/05/18 00:06:50;;;;;;;4.30;1.40;;;;;;;;;;4964379;28;20035;-84
2021/05/18 00:12:04;;;;;;;2.00;1.10;;;11.30;99.90;;;;;;4967554;28;20049;-83
2021/05/18 00:14:32;;;;;;;3.60;1.40;;;;;;;;;;4947207;28;20154;-84
2021/05/18 00:17:01;;;;;;;3.65;1.25;;;;;;;;;;4966048;28;20062;-85
2021/05/18 00:19:27;;;;;;;1.42;1.00;;;11.10;99.90;;;;;;4957769;28;20035;-85
2021/05/18 00:21:56;;;;;;;1.63;1.23;;;;;;;;;;4945172;28;20027;-88
2021/05/18 00:24:21;;;;;;;3.58;1.80;;;11.10;99.90;;;;;;4948631;28;20035;-84
2021/05/18 00:26:47;;;;;;;3.03;1.20;;;;;;;;;;4948981;28;20043;-87
2021/05/18 00:29:14;;;;;;;3.70;1.60;;;10.90;99.90;;;;;;4951201;28;20049;-86
2021/05/18 00:31:40;;;;;;;4.40;1.23;;;;;;;;;;4949078;28;20034;-86
2021/05/18 00:34:06;;;;;;;3.13;1.30;;;;;;;;;;4950731;28;20031;-86
2021/05/18 00:36:32;;;;;;;2.78;1.25;;;;;;;;;;4949735;28;20023;-86
2021/05/18 00:38:59;;;;;;;1.73;1.20;;;;;;;;;;4942565;28;20043;-86
2021/05/18 00:41:25;;;;;;;2.53;1.15;;;;;;;;;;4962584;28;20031;-83
2021/05/18 00:43:51;;;;;;;2.95;1.17;;;;;;;;;;4953765;28;20031;-84
2021/05/18 00:46:18;;;;;;;4.45;1.67;;;;;;;;;;4961140;28;20031;-85
2021/05/18 00:48:56;;;;;;;3.08;1.20;;;10.90;99.90;;;;;;4962844;28;20095;-87
2021/05/18 00:51:22;;;;;;;3.63;1.20;;;;;;;;;;4946330;28;20034;-87
2021/05/18 00:53:48;;;;;;;3.25;1.33;;;;;;;;;;4947087;28;20022;-85
2021/05/18 00:59:01;;;;;;;3.50;1.48;;;10.80;99.90;;;;;;4962082;28;20065;-86
2021/05/18 01:01:27;;;;;;;1.33;0.85;;;;;;;;;;4945111;28;20122;-86
2021/05/18 01:03:54;;;;;;;1.27;1.10;;;10.80;99.90;;;;;;4951900;28;20106;-86
2021/05/18 01:08:52;;;;;;;2.28;0.90;;;;;;;;;;4962442;28;20058;-84
2021/05/18 01:11:21;;;;;;;1.55;1.13;;;;;;;;;;4964496;28;20033;-83
2021/05/18 01:13:47;;;;;;;1.33;0.98;;;;;;;;;;4951973;28;20051;-87
2021/05/18 01:16:13;;;;;;;2.40;1.77;;;;;;;;;;4964894;28;20031;-88
2021/05/18 01:18:44;;;;;;;3.05;0.90;;;;;;;;;;4949341;28;20469;-86
2021/05/18 01:21:17;;;;;;;1.83;1.10;;;;;;;;;;4965215;28;20046;-83
2021/05/18 01:23:45;;;;;;;1.88;1.20;;;;;;;;;;4966135;28;20138;-85
2021/05/18 01:26:16;;;;;;;3.67;0.80;;;;;;;;;;4962290;28;20038;-82
2021/05/18 01:28:48;;;;;;;1.60;1.00;;;;;;;;;;4966078;28;20478;-84
2021/05/18 01:31:18;;;;;;;0.88;0.73;;;;;;;;;;4964182;28;20104;-84
2021/05/18 01:33:45;;;;;;;1.40;0.80;;;;;;;;;;4951959;28;20113;-86
2021/05/18 01:36:16;;;;;;;2.25;1.13;;;;;;;;;;4962481;28;20386;-82
2021/05/18 01:38:56;;;;;;;1.92;0.82;;;;;;;;;;4949609;28;20039;-83
2021/05/18 01:44:20;;;;;;;1.35;0.90;;;;;;;;;;4966813;28;20046;-87
2021/05/18 01:46:46;;;;;;;3.38;0.95;;;;;;;;;;4962272;28;20070;-82
2021/05/18 01:49:26;;;;;;;1.25;0.80;;;;;;;;;;4959319;28;20039;-87
2021/05/18 01:51:56;;;;;;;2.00;0.98;;;;;;;;;;4964090;28;20033;-82
2021/05/18 01:54:28;;;;;;;1.58;0.95;;;;;;;;;;4949786;28;20058;-83
2021/05/18 01:57:20;;;;;;;1.88;0.70;;;;;;;;;;4950930;28;20032;-87
2021/05/18 01:59:47;;;;;;;2.33;0.80;;;;;;;;;;4964642;28;20039;-85
2021/05/18 02:02:13;;;;;;;2.25;0.80;;;;;;;;;;4951515;28;20030;-87
2021/05/18 02:04:42;;;;;;;2.95;0.80;;;;;;;;;;4964443;28;20031;-87
2021/05/18 02:07:10;;;;;;;2.28;0.82;;;;;;;;;;4966765;28;20033;-84
2021/05/18 02:09:36;;;;;;;1.48;0.90;;;;;;;;;;4954324;28;20034;-84
2021/05/18 02:12:06;;;;;;;1.00;0.70;;;;;;;;;;4951846;28;20114;-86
2021/05/18 02:14:37;;;;;;;1.60;0.80;;;;;;;;;;4948292;28;20481;-86
2021/05/18 02:17:19;;;;;;;1.25;1.02;;;;;;;;;;4958107;28;20043;-85
2021/05/18 02:25:08;;;;;;;2.58;0.90;;;10.70;99.90;;;;;;4964745;28;20413;-88
2021/05/18 02:27:34;;;;;;;2.25;1.10;;;;;;;;;;4964666;28;20030;-83
2021/05/18 02:30:00;;;;;;;2.85;1.10;;;10.60;99.90;;;;;;4948590;28;20031;-83
2021/05/18 02:32:28;;;;;;;1.42;1.00;;;10.70;99.90;;;;;;4947643;28;20034;-85
2021/05/18 02:34:54;;;;;;;2.72;1.00;;;;;;;;;;4962697;28;20045;-85
2021/05/18 02:37:21;;;;;;;2.13;1.20;;;;;;;;;;4945056;28;20050;-85
2021/05/18 02:39:47;;;;;;;1.50;1.10;;;;;;;;;;4946906;28;20031;-82
2021/05/18 02:42:13;;;;;;;2.63;1.00;;;10.70;99.90;;;;;;4945613;28;20046;-83
2021/05/18 02:49:50;;;;;;;2.65;1.40;;;;;;;;;;4963647;28;20033;-84
2021/05/18 02:52:16;;;;;;;2.95;1.77;;;;;;;;;;4968828;28;20027;-86
2021/05/18 02:54:48;;;;;;;3.03;1.73;;;;;;;;;;4961661;28;20414;-85
2021/05/18 02:57:18;;;;;;;1.90;1.20;;;;;;;;;;4965620;28;20050;-85
2021/05/18 02:59:44;;;;;;;3.08;1.58;;;;;;;;;;4950879;28;20034;-85
2021/05/18 03:02:10;;;;;;;4.28;2.13;;;;;;;;;;4949364;28;20077;-84
2021/05/18 03:04:39;;;;;;;3.58;1.55;;;10.70;99.90;;;;;;4951273;28;20436;-85
2021/05/18 03:07:05;;;;;;;5.97;2.10;;;;;;;;;;4950568;28;20038;-88
2021/05/18 03:09:31;;;;;;;3.92;1.63;;;;;;;;;;4958235;28;20035;-85
2021/05/18 03:11:57;;;;;;;2.95;1.48;;;;;;;;;;4951888;28;20027;-85
2021/05/18 03:14:23;;;;;;;2.42;1.50;;;;;;;;;;4953032;28;20126;-87
2021/05/18 03:16:49;;;;;;;3.58;1.70;;;;;;;;;;4952384;28;20125;-84
2021/05/18 03:19:16;;;;;;;6.40;2.58;;;;;;;;;;4947645;28;20066;-88
2021/05/18 03:21:43;;;;;;;3.50;2.13;;;10.70;99.90;;;;;;4965144;28;20023;-86
2021/05/18 03:24:13;;;;;;;13.43;5.60;;;10.80;99.90;;;;;;4964966;28;20073;-85
2021/05/18 03:26:50;;;;;;;7.65;1.92;;;;;;;;;;4955251;28;20034;-87
2021/05/18 03:37:06;;;;;;;3.90;1.63;;;;;;;;;;4965901;28;20031;-83
2021/05/18 03:39:34;;;;;;;6.07;1.73;;;;;;;;;;4961586;28;20035;-85
2021/05/18 03:42:07;;;;;;;3.92;1.67;;;;;;;;;;4953402;28;20031;-86
2021/05/18 03:52:50;;;;;;;2.95;1.52;;;10.70;99.90;;;;;;4964832;28;20066;-87
2021/05/18 04:03:42;;;;;;;4.38;1.90;;;10.70;99.90;;;;;;4964338;28;20045;-85
2021/05/18 04:17:09;;;;;;;4.57;2.00;;;10.70;99.90;;;;;;4966310;28;20478;-84
2021/05/18 04:19:40;;;;;;;3.42;2.00;;;;;;;;;;4955034;28;20414;-84
2021/05/18 04:49:43;;;;;;;8.70;3.63;;;10.90;99.90;;;;;;4971122;28;20089;-83
2021/05/18 04:51:46;;;;;;;6.85;2.95;;;11.00;99.90;;;;;;4967329;28;20576;-84
2021/05/18 04:59:31;;;;;;;6.75;2.05;;;;;;;;;;4970326;28;20433;-83
2021/05/18 05:07:03;;;;;;;6.47;2.33;;;11.30;99.90;;;;;;4971179;28;20031;-82
2021/05/18 05:09:31;;;;;;;5.53;2.42;;;11.30;99.90;;;;;;4969740;28;20548;-85
2021/05/18 05:14:42;;;;;;;6.60;2.15;;;11.20;99.90;;;;;;4972573;28;20086;-83
2021/05/18 05:17:08;;;;;;;5.43;2.20;;;11.10;99.90;;;;;;4970336;28;20027;-84
2021/05/18 05:19:37;;;;;;;4.60;2.10;;;11.10;99.90;;;;;;4966666;28;20092;-88
2021/05/18 05:22:04;;;;;;;4.97;2.08;;;11.10;99.90;;;;;;4960926;28;20031;-86
2021/05/18 05:24:30;;;;;;;6.80;2.28;;;11.10;99.90;;;;;;4965310;28;20063;-86
2021/05/18 05:26:57;;;;;;;5.90;2.42;;;11.30;99.90;;;;;;4963129;28;20030;-88
2021/05/18 05:29:23;;;;;;;6.15;2.28;;;11.20;99.90;;;;;;4961632;28;20050;-86
2021/05/18 05:31:50;;;;;;;6.22;2.20;;;10.60;99.90;;;;;;4961989;28;20061;-85
2021/05/18 05:34:17;;;;;;;5.95;1.77;;;11.20;99.90;;;;;;4959109;28;20030;-85
2021/05/18 05:36:46;;;;;;;9.88;2.00;;;11.20;99.90;;;;;;4975134;28;20530;-87
2021/05/18 05:39:23;;;;;;;4.68;1.98;;;11.30;99.90;;;;;;4960330;28;20090;-86
2021/05/18 05:41:54;;;;;;;5.20;1.80;;;11.40;99.90;;;;;;4968206;28;20074;-86
2021/05/18 05:44:24;;;;;;;11.57;2.45;;;11.50;99.90;;;;;;4970111;28;20023;-84
2021/05/18 05:46:50;;;;;;;6.40;1.70;;;11.60;99.90;;;;;;4960253;28;20149;-87
2021/05/18 05:49:16;;;;;;;8.02;2.28;;;12.30;99.90;;;;;;4961164;28;20026;-85
2021/05/18 05:51:42;;;;;;;4.03;1.60;;;11.70;99.90;;;;;;4962964;28;20034;-83
2021/05/18 05:54:09;;;;;;;9.82;2.08;;;;;;;;;;4961261;28;20024;-87
2021/05/18 05:56:35;;;;;;;3.80;1.70;;;12.10;99.90;;;;;;4983848;28;20114;-84
2021/05/18 05:59:02;;;;;;;5.10;1.63;;;13.50;99.90;;;;;;4963725;28;21841;-84
2021/05/18 06:01:29;;;;;;;3.20;1.58;;;13.70;99.90;;;;;;4961043;28;20030;-86
2021/05/18 06:03:55;;;;;;;5.05;1.50;;;12.50;99.90;;;;;;4961229;28;20030;-86
2021/05/18 06:06:21;;;;;;;12.65;2.25;;;12.50;99.90;;;;;;4964250;28;20085;-84
2021/05/18 06:08:48;;;;;;;2.55;1.50;;;;;;;;;;4962658;28;20034;-87
2021/05/18 06:11:20;;;;;;;4.78;1.48;;;12.50;99.90;;;;;;4951526;28;20050;-85
2021/05/18 06:35:20;;;;;;;6.63;1.48;;;12.90;99.90;;;;;;4972691;28;20042;-85
2021/05/18 06:37:47;;;;;;;5.60;1.52;;;12.30;99.90;;;;;;4973815;28;20210;-85
2021/05/18 06:43:07;;;;;;;5.47;1.90;;;12.60;99.90;;;;;;4972805;28;20043;-86
2021/05/18 06:48:17;;;;;;;2.80;1.35;;;12.70;99.90;;;;;;4975333;28;20046;-85
2021/05/18 06:50:43;;;;;;;10.38;2.25;;;13.90;99.90;;;;;;4960492;28;20485;-82
2021/05/18 06:53:08;;;;;;;5.20;1.52;;;13.20;99.90;;;;;;4958949;28;20541;-83
2021/05/18 06:55:35;;;;;;;1.85;1.08;;;15.40;99.90;;;;;;4960510;28;20035;-84
2021/05/18 06:58:05;;;;;;;6.05;1.40;;;12.60;99.90;;;;;;4958270;28;20050;-86
2021/05/18 07:00:31;;;;;;;5.60;1.52;;;14.20;99.90;;;;;;4963286;28;20042;-84
2021/05/18 07:02:58;;;;;;;5.60;1.70;;;13.10;99.90;;;;;;4942690;28;20043;-86
2021/05/18 07:10:33;;;;;;;6.13;1.63;;;13.00;99.90;;;;;;4971578;28;20023;-86
2021/05/18 07:12:58;;;;;;;4.22;1.45;;;15.70;99.90;;;;;;4955486;28;20115;-84
2021/05/18 07:15:28;;;;;;;4.78;1.35;;;;;;;;;;4958853;28;20341;-85
2021/05/18 07:17:57;;;;;;;5.38;1.65;;;13.20;99.90;;;;;;4963555;28;20049;-87
2021/05/18 07:20:23;;;;;;;4.82;1.48;;;13.90;99.90;;;;;;4975347;28;20046;-88
2021/05/18 07:22:53;;;;;;;5.50;1.52;;;;;;;;;;4963255;28;20035;-85
2021/05/18 07:25:21;;;;;;;6.97;1.80;;;13.10;99.90;;;;;;4955152;28;20030;-87
2021/05/18 07:27:47;;;;;;;4.28;1.67;;;12.90;99.90;;;;;;4956628;28;20599;-85
2021/05/18 07:30:13;;;;;;;6.47;2.13;;;12.80;99.90;;;;;;4948916;28;20122;-87
2021/05/18 07:32:40;;;;;;;5.45;1.75;;;12.80;99.90;;;;;;4964713;28;20556;-86
2021/05/18 07:35:07;;;;;;;6.70;1.83;;;13.10;99.90;;;;;;4964294;28;20030;-86
2021/05/18 07:37:33;;;;;;;5.53;1.23;;;12.60;99.90;;;;;;4961486;28;20027;-84
2021/05/18 07:40:00;;;;;;;5.78;1.17;;;;;;;;;;4959866;28;20090;-84
2021/05/18 07:42:25;;;;;;;10.73;2.55;;;12.80;99.90;;;;;;4968393;28;20508;-84
2021/05/18 07:44:52;;;;;;;6.47;1.42;;;;;;;;;;4954720;28;20030;-84
2021/05/18 07:47:19;;;;;;;6.78;2.13;;;;;;;;;;4967761;28;20047;-87
2021/05/18 07:49:49;;;;;;;6.25;1.50;;;12.80;99.90;;;;;;4961556;28;20031;-86
2021/05/18 08:00:38;;;;;;;7.10;1.25;;;13.40;99.90;;;;;;4977307;28;20061;-82
2021/05/18 08:05:51;;;;;;;4.57;1.20;;;13.80;99.90;;;;;;4972773;28;20142;-84
2021/05/18 08:08:17;;;;;;;6.03;1.38;;;13.90;99.90;;;;;;4956658;28;20085;-83
2021/05/18 08:10:52;;;;;;;5.65;1.30;;;15.50;99.90;;;;;;4963787;28;20094;-82
2021/05/18 08:13:22;;;;;;;4.70;1.48;;;14.80;99.90;;;;;;4963333;28;20102;-86
2021/05/18 08:18:42;;;;;;;2.97;0.95;;;13.80;99.90;;;;;;4980773;28;20038;-81
2021/05/18 10:37:51;;;;;;;2.13;0.80;;;15.40;92.60;;;;;;4964072;28;20597;-84
2021/05/18 10:40:23;;;;;;;2.53;0.70;;;15.40;93.00;;;;;;4956700;28;20037;-85
2021/05/18 10:43:04;;;;;;;2.55;0.98;;;15.30;92.60;;;;;;4949090;28;20409;-84
2021/05/18 10:46:02;;;;;;;2.45;0.65;;;15.40;92.80;;;;;;4954359;28;20038;-86
2021/05/18 10:48:53;;;;;;;3.60;0.98;;;15.50;92.50;;;;;;4961356;28;20050;-81
2021/05/18 10:51:26;;;;;;;2.33;0.80;;;15.90;91.60;;;;;;4955671;28;20109;-86
2021/05/18 10:54:19;;;;;;;1.60;0.60;;;16.30;90.90;;;;;;4961127;28;20043;-82
2021/05/18 10:59:24;;;;;;;2.00;0.73;;;17.00;88.00;;;;;;4969274;28;20031;-85
2021/05/18 11:01:56;;;;;;;;;;;17.00;86.90;;;;;;4970052;28;20131;-86
2021/05/18 11:04:25;;;;;;;2.65;0.80;;;;;;;;;;4954860;28;19943;-87
2021/05/18 11:06:52;;;;;;;3.13;0.95;;;16.80;89.10;;;;;;4957642;28;20027;-87
2021/05/18 11:09:19;;;;;;;3.33;1.27;;;17.40;87.40;;;;;;4953630;28;20066;-85
2021/05/18 11:11:47;;;;;;;1.25;0.77;;;17.20;86.60;;;;;;4974728;28;20026;-84
2021/05/18 11:14:14;;;;;;;2.35;0.80;;;17.50;85.80;;;;;;4944039;28;20094;-85
2021/05/18 11:16:40;;;;;;;1.90;0.60;;;17.50;84.70;;;;;;4958756;28;20045;-85
2021/05/18 11:19:13;;;;;;;3.28;1.65;;;17.30;84.60;;;;;;4977414;28;20640;-85
2021/05/18 11:21:43;;;;;;;3.55;1.10;;;;;;;;;;4963424;28;20026;-85
2021/05/18 11:24:15;;;;;;;2.83;0.77;;;16.90;87.90;;;;;;4973355;28;20832;-83
2021/05/18 11:26:48;;;;;;;1.77;0.63;;;16.90;88.40;;;;;;4970787;28;20070;-84
2021/05/18 11:29:14;;;;;;;2.13;1.10;;;16.60;88.00;;;;;;4966326;28;20114;-85
2021/05/18 11:31:40;;;;;;;1.85;1.00;;;16.40;88.70;;;;;;4956808;28;20070;-84
2021/05/18 11:34:06;;;;;;;3.80;1.45;;;16.30;87.60;;;;;;4960533;28;20496;-85
2021/05/18 11:36:40;;;;;;;5.57;1.27;;;16.40;87.40;;;;;;4954868;28;20069;-85
2021/05/18 11:39:14;;;;;;;4.78;1.20;;;16.40;86.50;;;;;;4960358;28;20031;-85
2021/05/18 11:41:41;;;;;;;2.15;0.73;;;16.40;88.10;;;;;;4958286;28;20031;-86
2021/05/18 11:44:09;;;;;;;4.65;1.42;;;16.60;86.10;;;;;;4953782;28;20518;-85
2021/05/18 11:46:42;;;;;;;3.00;1.02;;;16.60;86.60;;;;;;4958848;28;20054;-86
2021/05/18 11:49:12;;;;;;;1.55;0.80;;;16.60;86.50;;;;;;4971323;28;20023;-85
2021/05/18 11:51:56;;;;;;;1.90;0.65;;;16.60;86.60;;;;;;4949537;28;20030;-86
2021/05/18 11:54:28;;;;;;;4.95;0.80;;;16.80;86.50;;;;;;4954390;28;20031;-83
2021/05/18 11:56:58;;;;;;;3.35;0.90;;;16.70;87.40;;;;;;4948274;28;20777;-85
2021/05/18 11:59:25;;;;;;;2.25;0.60;;;17.70;86.90;;;;;;4951518;28;20433;-86
2021/05/18 12:01:56;;;;;;;2.92;1.08;;;16.90;81.80;;;;;;4974672;28;20508;-83
2021/05/18 12:04:23;;;;;;;1.30;0.55;;;17.20;80.60;;;;;;4971627;28;20030;-83
2021/05/18 12:07:05;;;;;;;0.82;0.55;;;17.10;80.60;;;;;;4957807;28;20046;-82
2021/05/18 12:09:38;;;;;;;4.07;1.05;;;17.20;81.50;;;;;;4960456;28;20029;-83
2021/05/18 12:12:10;;;;;;;4.88;1.20;;;17.10;82.50;;;;;;4956299;28;20102;-86
2021/05/18 12:14:54;;;;;;;1.83;0.88;;;16.80;84.50;;;;;;4951657;28;20031;-84
2021/05/18 12:17:28;;;;;;;1.83;0.75;;;16.60;85.70;;;;;;4953527;28;20040;-84
2021/05/18 12:19:53;;;;;;;3.05;0.95;;;16.50;83.60;;;;;;4953104;28;20393;-85
2021/05/18 12:22:19;;;;;;;2.70;0.80;;;16.50;81.60;;;;;;4962967;28;20114;-84
2021/05/18 12:24:45;;;;;;;1.23;0.80;;;16.70;81.40;;;;;;4956689;28;20039;-81
2021/05/18 12:27:11;;;;;;;2.80;0.75;;;17.10;80.50;;;;;;4970908;28;20536;-84
2021/05/18 12:29:41;;;;;;;4.60;1.20;;;17.60;80.10;;;;;;4949893;28;20034;-86
2021/05/18 12:32:19;;;;;;;3.92;1.10;;;17.70;79.10;;;;;;4947768;28;20035;-84
2021/05/18 12:34:48;;;;;;;2.55;1.42;;;17.30;83.10;;;;;;4956456;28;20031;-83
2021/05/18 12:37:15;;;;;;;1.55;0.82;;;17.20;83.80;;;;;;4964194;28;20114;-85
2021/05/18 12:39:43;;;;;;;3.78;0.80;;;16.80;86.50;;;;;;4955503;28;20408;-82
2021/05/18 12:42:13;;;;;;;3.40;1.10;;;16.50;89.20;;;;;;4954680;28;20035;-80
2021/05/18 12:44:59;;;;;;;2.35;0.88;;;16.20;90.80;;;;;;4969017;28;20031;-85
2021/05/18 12:47:31;;;;;;;2.80;1.00;;;16.80;91.00;;;;;;4974195;28;20030;-82
2021/05/18 12:49:57;;;;;;;2.72;0.98;;;16.50;90.10;;;;;;4971433;28;20033;-84
2021/05/18 12:52:23;;;;;;;3.67;0.90;;;;;;;;;;4956293;28;20023;-83
2021/05/18 12:54:56;;;;;;;4.55;1.55;;;16.90;85.30;;;;;;4960236;28;20035;-83
2021/05/18 12:57:24;;;;;;;2.42;1.00;;;17.00;83.70;;;;;;4975991;28;20058;-86
2021/05/18 13:00:02;;;;;;;1.75;1.00;;;17.00;84.20;;;;;;4958261;28;20042;-86
2021/05/18 13:02:38;;;;;;;1.83;0.82;;;17.00;83.80;;;;;;4949026;28;20031;-84
2021/05/18 13:05:04;;;;;;;2.47;0.95;;;17.00;84.20;;;;;;4964759;28;20023;-85
2021/05/18 13:07:30;;;;;;;4.13;1.45;;;;;;;;;;4965523;28;20042;-84
2021/05/18 13:10:22;;;;;;;3.63;1.35;;;17.00;82.50;;;;;;4959314;28;20058;-86
2021/05/18 13:12:48;;;;;;;4.95;1.27;;;17.00;82.30;;;;;;4956215;28;20498;-83
2021/05/18 13:15:21;;;;;;;1.27;0.70;;;16.90;82.90;;;;;;4956948;28;20054;-84
2021/05/18 13:17:55;;;;;;;4.22;0.82;;;16.90;81.60;;;;;;4956711;28;20058;-89
2021/05/18 13:20:22;;;;;;;1.63;0.73;;;16.90;81.10;;;;;;4956481;28;20027;-86
2021/05/18 13:22:55;;;;;;;2.60;0.80;;;16.90;81.30;;;;;;4954535;28;20035;-88
2021/05/18 13:28:05;;;;;;;2.47;0.95;;;16.80;81.20;;;;;;4966718;28;20034;-87
2021/05/18 13:30:32;;;;;;;3.28;1.20;;;16.90;80.50;;;;;;4964796;28;20094;-86
2021/05/18 13:33:00;;;;;;;1.85;1.00;;;16.90;82.30;;;;;;4954276;28;20069;-85
2021/05/18 13:35:28;;;;;;;2.80;1.02;;;17.00;82.20;;;;;;4976090;28;20123;-84
2021/05/18 13:37:55;;;;;;;1.95;1.20;;;16.70;83.30;;;;;;4970623;28;20308;-84
2021/05/18 13:40:20;;;;;;;3.15;1.38;;;17.70;84.50;;;;;;4969288;28;20047;-83
2021/05/18 13:42:51;;;;;;;2.95;1.35;;;17.10;84.70;;;;;;4973837;28;20039;-85
2021/05/18 13:45:18;;;;;;;2.05;0.90;;;17.10;83.20;;;;;;4966032;28;20226;-85
2021/05/18 13:47:44;;;;;;;3.17;1.40;;;17.30;79.40;;;;;;4963450;28;20062;-85
2021/05/18 13:50:10;;;;;;;3.08;1.10;;;20.80;80.40;;;;;;4955763;28;20110;-84
2021/05/18 13:52:38;;;;;;;2.33;0.80;;;17.80;78.30;;;;;;4959305;28;20029;-83
2021/05/18 13:55:04;;;;;;;1.92;0.80;;;18.00;77.40;;;;;;4955537;28;20403;-84
2021/05/18 13:57:32;;;;;;;1.42;0.77;;;18.00;76.10;;;;;;4971283;28;20038;-84
2021/05/18 13:59:59;;;;;;;3.05;1.10;;;18.20;74.80;;;;;;4954058;28;20031;-85
2021/05/18 14:02:25;;;;;;;1.25;0.70;;;18.10;73.30;;;;;;4958170;28;20027;-84
2021/05/18 14:04:51;;;;;;;1.90;0.80;;;18.10;74.10;;;;;;4955636;28;20027;-84
2021/05/18 14:10:07;;;;;;;1.65;0.60;;;17.60;76.00;;;;;;4970470;28;20031;-84
2021/05/18 14:12:33;;;;;;;0.95;0.70;;;17.70;75.80;;;;;;4954406;28;20034;-84
2021/05/18 14:14:58;;;;;;;1.67;0.70;;;17.70;75.90;;;;;;4954930;28;20023;-84
2021/05/18 14:17:24;;;;;;;1.17;0.70;;;17.50;75.80;;;;;;4959421;28;20058;-82
2021/05/18 14:19:50;;;;;;;1.95;0.90;;;17.10;76.00;;;;;;4956936;28;20061;-85
2021/05/18 14:22:15;;;;;;;2.00;0.90;;;18.80;80.10;;;;;;4970772;28;20054;-84
2021/05/18 14:24:51;;;;;;;2.80;0.90;;;;;;;;;;4955363;28;20481;-87
2021/05/18 14:27:20;;;;;;;1.40;0.90;;;;;;;;;;4965673;28;20098;-84
2021/05/18 14:29:46;;;;;;;2.05;0.90;;;16.20;85.50;;;;;;4953691;28;20019;-81
2021/05/18 14:32:14;;;;;;;4.03;0.80;;;;;;;;;;4954804;28;20110;-86
2021/05/18 14:34:40;;;;;;;2.50;1.00;;;15.90;90.40;;;;;;4963600;28;20035;-85
2021/05/18 14:37:06;;;;;;;2.28;0.70;;;;;;;;;;4972974;28;20043;-85
2021/05/18 14:39:48;;;;;;;2.38;1.38;;;16.10;91.20;;;;;;4959767;28;20027;-85
2021/05/18 14:44:59;;;;;;;1.60;0.70;;;;;;;;;;4972433;28;20042;-86
2021/05/18 14:47:30;;;;;;;0.75;0.50;;;;;;;;;;4958891;28;20470;-88
2021/05/18 14:55:26;;;;;;;1.27;0.50;;;16.70;87.60;;;;;;4971497;28;20030;-87
2021/05/18 14:57:51;;;;;;;1.38;0.60;;;16.70;88.00;;;;;;4957451;28;20130;-86
2021/05/18 15:00:18;;;;;;;1.02;0.60;;;16.70;89.30;;;;;;4958247;28;20050;-86
2021/05/18 15:02:43;;;;;;;0.70;0.50;;;16.50;90.00;;;;;;4970437;28;20499;-82
2021/05/18 15:05:10;;;;;;;1.73;0.57;;;16.70;87.60;;;;;;4957258;28;20030;-86
2021/05/18 15:07:35;;;;;;;0.70;0.60;;;16.50;88.80;;;;;;4956585;28;20029;-86
2021/05/18 15:10:03;;;;;;;1.80;0.77;;;16.50;89.40;;;;;;4953778;28;20019;-83
2021/05/18 15:12:29;;;;;;;0.80;0.60;;;16.60;89.10;;;;;;4952584;28;20035;-83
2021/05/18 15:14:55;;;;;;;0.93;0.65;;;16.40;89.50;;;;;;4956644;28;20039;-85
2021/05/18 15:17:20;;;;;;;2.63;0.60;;;16.40;90.30;;;;;;4956034;28;20054;-84
2021/05/18 15:19:50;;;;;;;1.35;0.80;;;16.20;90.70;;;;;;4955126;28;20042;-86
2021/05/18 15:22:16;;;;;;;1.95;1.42;;;16.00;91.60;;;;;;4961407;28;20042;-85
2021/05/18 15:24:42;;;;;;;1.10;0.70;;;;;;;;;;4952472;28;20039;-86
2021/05/18 15:27:09;;;;;;;1.73;1.25;;;;;;;;;;4954105;28;20046;-87
2021/05/18 15:29:35;;;;;;;2.20;1.10;;;;;;;;;;4969195;28;20058;-85
2021/05/18 15:32:02;;;;;;;2.40;1.20;;;15.50;95.80;;;;;;4964296;28;20046;-85
2021/05/18 15:34:27;;;;;;;5.15;1.80;;;15.20;98.80;;;;;;4963757;28;20026;-85
2021/05/18 15:36:55;;;;;;;1.13;0.82;;;14.80;99.90;;;;;;4956360;28;20019;-84
2021/05/18 15:39:20;;;;;;;3.53;1.77;;;14.40;99.90;;;;;;4948580;28;20035;-82
2021/05/18 15:41:46;;;;;;;1.48;0.80;;;14.00;99.90;;;;;;4969234;28;20031;-81
2021/05/18 15:44:12;;;;;;;2.40;1.33;;;13.80;99.90;;;;;;4954508;28;20033;-86
2021/05/18 15:46:38;;;;;;;2.78;1.23;;;13.80;99.90;;;;;;4956857;28;20031;-85
2021/05/18 15:49:04;;;;;;;2.17;1.10;;;13.80;99.90;;;;;;4953842;28;20024;-87
2021/05/18 15:51:30;;;;;;;2.50;1.38;;;14.70;99.90;;;;;;4959037;28;20041;-84
2021/05/18 15:53:56;;;;;;;2.55;1.00;;;14.30;99.90;;;;;;4959590;28;20057;-85
2021/05/18 15:56:23;;;;;;;4.45;1.52;;;13.90;99.90;;;;;;4958418;28;20472;-86
2021/05/18 15:58:48;;;;;;;1.98;1.05;;;14.00;99.90;;;;;;4955117;28;20137;-86
2021/05/18 16:01:14;;;;;;;1.55;0.80;;;16.20;99.90;;;;;;4955193;28;20569;-87
2021/05/18 16:03:39;;;;;;;3.45;1.00;;;13.90;99.90;;;;;;4961048;28;20035;-87
2021/05/18 16:06:05;;;;;;;3.17;1.45;;;13.90;99.90;;;;;;4967946;28;20023;-85
2021/05/18 16:11:06;;;;;;;3.22;1.00;;;14.10;99.90;;;;;;4964685;28;20039;-87
2021/05/18 16:13:35;;;;;;;3.38;1.30;;;14.20;99.90;;;;;;4964304;28;20035;-86
2021/05/18 16:16:07;;;;;;;5.50;1.67;;;14.20;99.90;;;;;;4950475;28;20035;-84
2021/05/18 16:18:34;;;;;;;4.50;1.70;;;14.50;99.90;;;;;;4970306;28;20081;-85
2021/05/18 16:21:00;;;;;;;2.95;1.00;;;14.50;99.90;;;;;;4951704;28;20057;-85
2021/05/18 16:23:27;;;;;;;3.05;1.25;;;14.70;99.90;;;;;;4955585;28;20774;-84
2021/05/18 16:25:57;;;;;;;6.15;2.50;;;14.60;99.90;;;;;;4953946;28;20590;-89
2021/05/18 16:28:23;;;;;;;3.72;1.60;;;;;;;;;;4972241;28;20027;-83
2021/05/18 16:30:49;;;;;;;2.75;1.20;;;;;;;;;;4954444;28;20038;-85
2021/05/18 16:33:15;;;;;;;2.97;1.05;;;;;;;;;;4960493;28;20030;-85
2021/05/18 16:35:42;;;;;;;3.00;1.00;;;;;;;;;;4959964;28;20089;-87
2021/05/18 16:38:08;;;;;;;1.73;0.73;;;;;;;;;;4967983;28;20034;-87
2021/05/18 16:40:34;;;;;;;2.40;1.27;;;;;;;;;;4972912;28;20497;-84
2021/05/18 16:43:00;;;;;;;2.05;1.05;;;15.30;98.20;;;;;;4962640;28;20050;-85
2021/05/18 16:45:26;;;;;;;1.85;0.80;;;15.40;97.50;;;;;;4966080;28;20030;-86
2021/05/18 16:47:52;;;;;;;1.40;0.68;;;;;;;;;;4960218;28;20110;-82
2021/05/18 16:50:18;;;;;;;3.80;1.08;;;;;;;;;;4956957;28;20861;-85
2021/05/18 16:52:45;;;;;;;1.55;0.80;;;;;;;;;;4957329;28;20031;-87
2021/05/18 16:55:12;;;;;;;1.67;0.80;;;;;;;;;;4974447;28;20108;-87
2021/05/18 16:57:38;;;;;;;4.85;1.90;;;;;;;;;;4962402;28;20382;-84
2021/05/18 17:00:07;;;;;;;2.63;1.42;;;15.50;98.60;;;;;;4964747;28;20077;-84
2021/05/18 17:02:33;;;;;;;1.92;0.95;;;;;;;;;;4960896;28;20062;-88
2021/05/18 17:04:59;;;;;;;1.55;0.98;;;;;;;;;;4971421;28;20030;-84
2021/05/18 17:07:26;;;;;;;2.08;0.90;;;;;;;;;;4961831;28;20022;-86
2021/05/18 17:09:52;;;;;;;3.30;1.55;;;15.70;97.50;;;;;;4960001;28;20402;-84
2021/05/18 17:12:19;;;;;;;2.30;1.38;;;;;;;;;;4956615;28;20027;-86
2021/05/18 17:14:46;;;;;;;2.60;1.15;;;15.80;97.40;;;;;;4971562;28;20031;-84
2021/05/18 17:17:14;;;;;;;1.98;1.17;;;;;;;;;;4958780;28;20031;-88
2021/05/18 17:19:40;;;;;;;3.50;1.38;;;;;;;;;;4961600;28;20026;-85
2021/05/18 17:22:06;;;;;;;1.33;0.88;;;;;;;;;;4960155;28;20143;-85
2021/05/18 17:24:32;;;;;;;3.47;1.00;;;;;;;;;;4959397;28;20027;-85
2021/05/18 17:26:59;;;;;;;6.40;1.80;;;;;;;;;;4960848;28;20027;-84
2021/05/18 17:29:25;;;;;;;2.88;1.30;;;15.50;96.80;;;;;;4961722;28;20032;-82
2021/05/18 17:31:51;;;;;;;2.28;1.15;;;;;;;;;;4954206;28;20107;-85
2021/05/18 17:34:19;;;;;;;1.92;1.00;;;;;;;;;;4969655;28;20035;-85
2021/05/18 17:36:50;;;;;;;1.80;1.10;;;14.90;97.40;;;;;;4976854;28;20022;-82
2021/05/18 17:39:17;;;;;;;4.88;1.35;;;15.10;97.80;;;;;;4971569;28;20031;-87
2021/05/18 17:41:43;;;;;;;2.67;1.40;;;;;;;;;;4956299;28;20035;-84
2021/05/18 17:44:09;;;;;;;2.10;1.10;;;15.40;96.40;;;;;;4954262;28;20031;-85
2021/05/18 17:46:36;;;;;;;2.10;0.90;;;15.40;96.30;;;;;;4955563;28;20093;-85
2021/05/18 17:49:02;;;;;;;3.85;1.88;;;;;;;;;;4940668;28;20054;-85
2021/05/18 17:51:38;;;;;;;1.23;0.80;;;;;;;;;;4955315;28;20027;-83
2021/05/18 17:54:04;;;;;;;6.85;2.22;;;14.60;98.10;;;;;;4957262;28;20030;-82
2021/05/18 17:56:30;;;;;;;6.50;1.30;;;;;;;;;;4964894;28;20042;-84
2021/05/18 17:58:56;;;;;;;7.50;1.98;;;;;;;;;;4956499;28;20023;-84
2021/05/18 18:01:23;;;;;;;5.93;1.65;;;;;;;;;;4968577;28;20034;-83
2021/05/18 18:03:49;;;;;;;4.45;1.30;;;;;;;;;;4958152;28;20035;-86
2021/05/18 18:06:15;;;;;;;3.97;1.98;;;;;;;;;;4962052;28;20027;-83
2021/05/18 18:08:42;;;;;;;5.50;1.98;;;;;;;;;;4959321;28;20032;-85
2021/05/18 18:11:10;;;;;;;5.20;1.60;;;13.80;99.90;;;;;;4948789;28;20034;-86
2021/05/18 18:13:36;;;;;;;4.70;1.58;;;;;;;;;;4974225;28;20023;-81
2021/05/18 18:16:07;;;;;;;2.50;1.25;;;13.70;99.90;;;;;;4956679;28;20049;-84
2021/05/18 18:18:33;;;;;;;3.50;1.40;;;;;;;;;;4952664;28;20027;-81
2021/05/18 18:21:02;;;;;;;2.67;1.30;;;;;;;;;;4955431;28;20131;-85
2021/05/18 18:23:28;;;;;;;2.63;1.10;;;13.50;99.90;;;;;;4965594;28;20050;-82
2021/05/18 18:25:54;;;;;;;2.17;1.30;;;13.40;99.90;;;;;;4956855;28;20034;-83
2021/05/18 18:28:20;;;;;;;4.25;1.50;;;;;;;;;;4956640;28;20034;-81
2021/05/18 18:30:46;;;;;;;1.88;1.20;;;;;;;;;;4964752;28;20482;-83
2021/05/18 18:33:13;;;;;;;5.20;2.10;;;13.40;99.90;;;;;;4953939;28;20077;-85